sensor_id;sensor_type;location;lat;lon;timestamp;P1;durP1;ratioP1;P2;durP2;ratioP2
24173;SDS011;12324;48.146;11.502;2024-03-17T00:01:02;8.07;;;4.10;;
24173;SDS011;12324;48.146;11.502;2024-03-17T00:03:29;11.75;;;4.65;;
24173;SDS011;12324;48.146;11.502;2024-03-17T00:05:58;9.68;;;4.75;;
24173;SDS011;12324;48.146;11.502;2024-03-17T00:08:25;11.15;;;4.53;;
24173;SDS011;12324;48.146;11.502;2024-03-17T00:10:54;13.40;;;5.15;;
24173;SDS011;12324;48.146;11.502;2024-03-17T00:13:21;12.00;;;5.43;;
24173;SDS011;12324;48.146;11.502;2024-03-17T00:15:50;8.68;;;4.55;;
24173;SDS011;12324;48.146;11.502;2024-03-17T00:18:16;10.30;;;4.90;;
24173;SDS011;12324;48.146;11.502;2024-03-17T00:20:43;11.77;;;5.20;;
24173;SDS011;12324;48.146;11.502;2024-03-17T00:23:09;9.48;;;4.63;;
24173;SDS011;12324;48.146;11.502;2024-03-17T00:25:37;8.63;;;4.55;;
24173;SDS011;12324;48.146;11.502;2024-03-17T00:28:05;11.40;;;4.60;;
24173;SDS011;12324;48.146;11.502;2024-03-17T00:30:31;14.68;;;6.22;;
24173;SDS011;12324;48.146;11.502;2024-03-17T00:32:58;13.75;;;6.07;;
24173;SDS011;12324;48.146;11.502;2024-03-17T00:35:25;16.67;;;7.00;;
24173;SDS011;12324;48.146;11.502;2024-03-17T00:37:51;23.33;;;8.32;;
24173;SDS011;12324;48.146;11.502;2024-03-17T00:40:18;16.65;;;5.95;;
24173;SDS011;12324;48.146;11.502;2024-03-17T00:42:45;12.20;;;5.40;;
24173;SDS011;12324;48.146;11.502;2024-03-17T00:45:11;11.45;;;5.28;;
24173;SDS011;12324;48.146;11.502;2024-03-17T00:47:38;14.20;;;5.95;;
24173;SDS011;12324;48.146;11.502;2024-03-17T00:50:05;13.07;;;5.80;;
24173;SDS011;12324;48.146;11.502;2024-03-17T00:52:36;10.57;;;5.28;;
24173;SDS011;12324;48.146;11.502;2024-03-17T00:55:03;14.05;;;6.07;;
24173;SDS011;12324;48.146;11.502;2024-03-17T00:57:29;11.85;;;5.75;;
24173;SDS011;12324;48.146;11.502;2024-03-17T00:59:56;12.15;;;5.93;;
24173;SDS011;12324;48.146;11.502;2024-03-17T01:02:22;10.55;;;4.30;;
24173;SDS011;12324;48.146;11.502;2024-03-17T01:04:48;10.50;;;5.25;;
24173;SDS011;12324;48.146;11.502;2024-03-17T01:07:14;11.40;;;5.28;;
24173;SDS011;12324;48.146;11.502;2024-03-17T01:09:41;12.18;;;5.95;;
24173;SDS011;12324;48.146;11.502;2024-03-17T01:12:07;11.95;;;5.68;;
24173;SDS011;12324;48.146;11.502;2024-03-17T01:14:34;11.07;;;5.63;;
24173;SDS011;12324;48.146;11.502;2024-03-17T01:17:00;12.88;;;5.93;;
24173;SDS011;12324;48.146;11.502;2024-03-17T01:19:30;10.40;;;4.80;;
24173;SDS011;12324;48.146;11.502;2024-03-17T01:21:56;12.18;;;5.47;;
24173;SDS011;12324;48.146;11.502;2024-03-17T01:24:23;10.77;;;5.55;;
24173;SDS011;12324;48.146;11.502;2024-03-17T01:26:50;14.52;;;6.18;;
24173;SDS011;12324;48.146;11.502;2024-03-17T01:29:16;12.05;;;5.80;;
24173;SDS011;12324;48.146;11.502;2024-03-17T01:31:42;14.90;;;6.20;;
24173;SDS011;12324;48.146;11.502;2024-03-17T01:34:08;14.90;;;5.35;;
24173;SDS011;12324;48.146;11.502;2024-03-17T01:36:36;14.45;;;6.10;;
24173;SDS011;12324;48.146;11.502;2024-03-17T01:39:02;11.60;;;5.00;;
24173;SDS011;12324;48.146;11.502;2024-03-17T01:41:28;11.80;;;5.53;;
24173;SDS011;12324;48.146;11.502;2024-03-17T01:43:54;11.52;;;5.47;;
24173;SDS011;12324;48.146;11.502;2024-03-17T01:46:20;13.20;;;5.93;;
24173;SDS011;12324;48.146;11.502;2024-03-17T01:48:47;11.63;;;5.28;;
24173;SDS011;12324;48.146;11.502;2024-03-17T01:51:13;12.57;;;5.75;;
24173;SDS011;12324;48.146;11.502;2024-03-17T01:53:41;13.45;;;6.35;;
24173;SDS011;12324;48.146;11.502;2024-03-17T01:56:08;14.10;;;6.47;;
24173;SDS011;12324;48.146;11.502;2024-03-17T01:58:36;14.48;;;6.35;;
24173;SDS011;12324;48.146;11.502;2024-03-17T02:01:02;13.05;;;6.07;;
24173;SDS011;12324;48.146;11.502;2024-03-17T02:03:29;13.45;;;6.20;;
24173;SDS011;12324;48.146;11.502;2024-03-17T02:05:56;11.25;;;5.53;;
24173;SDS011;12324;48.146;11.502;2024-03-17T02:08:23;12.50;;;5.57;;
24173;SDS011;12324;48.146;11.502;2024-03-17T02:10:53;13.00;;;5.85;;
24173;SDS011;12324;48.146;11.502;2024-03-17T02:13:20;12.48;;;5.35;;
24173;SDS011;12324;48.146;11.502;2024-03-17T02:15:47;13.27;;;5.88;;
24173;SDS011;12324;48.146;11.502;2024-03-17T02:18:13;14.68;;;6.28;;
24173;SDS011;12324;48.146;11.502;2024-03-17T02:20:39;12.20;;;5.47;;
24173;SDS011;12324;48.146;11.502;2024-03-17T02:23:21;13.07;;;5.32;;
24173;SDS011;12324;48.146;11.502;2024-03-17T02:25:47;13.57;;;5.82;;
24173;SDS011;12324;48.146;11.502;2024-03-17T02:28:14;12.23;;;5.63;;
24173;SDS011;12324;48.146;11.502;2024-03-17T02:30:40;12.90;;;5.53;;
24173;SDS011;12324;48.146;11.502;2024-03-17T02:33:05;11.80;;;5.40;;
24173;SDS011;12324;48.146;11.502;2024-03-17T02:35:31;8.30;;;4.70;;
24173;SDS011;12324;48.146;11.502;2024-03-17T02:37:57;11.73;;;5.70;;
24173;SDS011;12324;48.146;11.502;2024-03-17T02:40:23;13.73;;;5.32;;
24173;SDS011;12324;48.146;11.502;2024-03-17T02:42:49;14.00;;;5.47;;
24173;SDS011;12324;48.146;11.502;2024-03-17T02:45:15;14.20;;;5.63;;
24173;SDS011;12324;48.146;11.502;2024-03-17T02:47:42;14.15;;;6.30;;
24173;SDS011;12324;48.146;11.502;2024-03-17T02:50:08;10.90;;;5.15;;
24173;SDS011;12324;48.146;11.502;2024-03-17T02:52:34;11.18;;;5.63;;
24173;SDS011;12324;48.146;11.502;2024-03-17T02:55:00;13.05;;;5.40;;
24173;SDS011;12324;48.146;11.502;2024-03-17T02:57:26;11.65;;;5.45;;
24173;SDS011;12324;48.146;11.502;2024-03-17T02:59:57;9.80;;;4.68;;
24173;SDS011;12324;48.146;11.502;2024-03-17T03:02:24;12.45;;;5.70;;
24173;SDS011;12324;48.146;11.502;2024-03-17T03:04:50;9.85;;;4.95;;
24173;SDS011;12324;48.146;11.502;2024-03-17T03:07:16;11.70;;;5.65;;
24173;SDS011;12324;48.146;11.502;2024-03-17T03:09:42;14.55;;;5.32;;
24173;SDS011;12324;48.146;11.502;2024-03-17T03:12:08;10.60;;;5.22;;
24173;SDS011;12324;48.146;11.502;2024-03-17T03:14:34;12.05;;;6.05;;
24173;SDS011;12324;48.146;11.502;2024-03-17T03:17:00;13.60;;;5.47;;
24173;SDS011;12324;48.146;11.502;2024-03-17T03:19:26;11.77;;;5.53;;
24173;SDS011;12324;48.146;11.502;2024-03-17T03:21:52;13.48;;;6.28;;
24173;SDS011;12324;48.146;11.502;2024-03-17T03:24:18;12.88;;;5.68;;
24173;SDS011;12324;48.146;11.502;2024-03-17T03:26:44;15.75;;;6.05;;
24173;SDS011;12324;48.146;11.502;2024-03-17T03:29:10;11.65;;;5.47;;
24173;SDS011;12324;48.146;11.502;2024-03-17T03:31:36;10.02;;;5.47;;
24173;SDS011;12324;48.146;11.502;2024-03-17T03:34:05;11.98;;;5.68;;
24173;SDS011;12324;48.146;11.502;2024-03-17T03:36:38;10.50;;;5.22;;
24173;SDS011;12324;48.146;11.502;2024-03-17T03:39:04;10.43;;;4.88;;
24173;SDS011;12324;48.146;11.502;2024-03-17T03:41:30;10.02;;;4.90;;
24173;SDS011;12324;48.146;11.502;2024-03-17T03:43:58;12.57;;;5.63;;
24173;SDS011;12324;48.146;11.502;2024-03-17T03:46:24;9.85;;;5.25;;
24173;SDS011;12324;48.146;11.502;2024-03-17T03:48:51;11.65;;;5.70;;
24173;SDS011;12324;48.146;11.502;2024-03-17T03:51:17;12.50;;;5.82;;
24173;SDS011;12324;48.146;11.502;2024-03-17T03:53:42;12.85;;;6.07;;
24173;SDS011;12324;48.146;11.502;2024-03-17T03:56:10;14.13;;;5.57;;
24173;SDS011;12324;48.146;11.502;2024-03-17T03:58:36;11.48;;;5.78;;
24173;SDS011;12324;48.146;11.502;2024-03-17T04:01:09;23.67;;;9.95;;
24173;SDS011;12324;48.146;11.502;2024-03-17T04:03:46;20.48;;;9.88;;
24173;SDS011;12324;48.146;11.502;2024-03-17T04:06:13;20.60;;;9.40;;
24173;SDS011;12324;48.146;11.502;2024-03-17T04:08:41;14.15;;;6.28;;
24173;SDS011;12324;48.146;11.502;2024-03-17T04:11:07;13.13;;;6.80;;
24173;SDS011;12324;48.146;11.502;2024-03-17T04:13:34;12.80;;;5.80;;
24173;SDS011;12324;48.146;11.502;2024-03-17T04:16:00;12.40;;;5.63;;
24173;SDS011;12324;48.146;11.502;2024-03-17T04:18:29;11.50;;;5.65;;
24173;SDS011;12324;48.146;11.502;2024-03-17T04:20:55;9.38;;;4.95;;
24173;SDS011;12324;48.146;11.502;2024-03-17T04:23:22;13.50;;;5.75;;
24173;SDS011;12324;48.146;11.502;2024-03-17T04:25:50;14.13;;;6.43;;
24173;SDS011;12324;48.146;11.502;2024-03-17T04:28:18;11.63;;;5.93;;
24173;SDS011;12324;48.146;11.502;2024-03-17T04:30:44;12.32;;;6.43;;
24173;SDS011;12324;48.146;11.502;2024-03-17T04:33:11;13.15;;;6.15;;
24173;SDS011;12324;48.146;11.502;2024-03-17T04:35:38;11.05;;;5.65;;
24173;SDS011;12324;48.146;11.502;2024-03-17T04:38:04;12.18;;;5.57;;
24173;SDS011;12324;48.146;11.502;2024-03-17T04:40:34;11.52;;;5.63;;
24173;SDS011;12324;48.146;11.502;2024-03-17T04:43:01;13.38;;;6.60;;
24173;SDS011;12324;48.146;11.502;2024-03-17T04:45:27;11.15;;;5.90;;
24173;SDS011;12324;48.146;11.502;2024-03-17T04:47:53;14.60;;;6.20;;
24173;SDS011;12324;48.146;11.502;2024-03-17T04:50:19;12.68;;;5.88;;
24173;SDS011;12324;48.146;11.502;2024-03-17T04:52:46;16.30;;;6.28;;
24173;SDS011;12324;48.146;11.502;2024-03-17T04:55:14;13.82;;;6.53;;
24173;SDS011;12324;48.146;11.502;2024-03-17T04:57:43;14.60;;;6.22;;
24173;SDS011;12324;48.146;11.502;2024-03-17T05:00:09;11.77;;;6.28;;
24173;SDS011;12324;48.146;11.502;2024-03-17T05:02:37;12.27;;;5.72;;
24173;SDS011;12324;48.146;11.502;2024-03-17T05:05:04;15.00;;;6.32;;
24173;SDS011;12324;48.146;11.502;2024-03-17T05:07:32;11.80;;;5.80;;
24173;SDS011;12324;48.146;11.502;2024-03-17T05:09:58;12.57;;;5.85;;
24173;SDS011;12324;48.146;11.502;2024-03-17T05:12:25;12.85;;;6.13;;
24173;SDS011;12324;48.146;11.502;2024-03-17T05:14:51;13.23;;;5.63;;
24173;SDS011;12324;48.146;11.502;2024-03-17T05:17:17;10.93;;;5.63;;
24173;SDS011;12324;48.146;11.502;2024-03-17T05:19:43;12.20;;;5.85;;
24173;SDS011;12324;48.146;11.502;2024-03-17T05:22:10;13.63;;;6.47;;
24173;SDS011;12324;48.146;11.502;2024-03-17T05:24:36;15.57;;;6.38;;
24173;SDS011;12324;48.146;11.502;2024-03-17T05:27:02;14.65;;;6.20;;
24173;SDS011;12324;48.146;11.502;2024-03-17T05:29:29;12.85;;;6.65;;
24173;SDS011;12324;48.146;11.502;2024-03-17T05:31:55;13.23;;;6.15;;
24173;SDS011;12324;48.146;11.502;2024-03-17T05:34:22;15.75;;;7.13;;
24173;SDS011;12324;48.146;11.502;2024-03-17T05:36:52;12.98;;;6.43;;
24173;SDS011;12324;48.146;11.502;2024-03-17T05:39:18;14.30;;;7.28;;
24173;SDS011;12324;48.146;11.502;2024-03-17T05:41:45;13.20;;;6.93;;
24173;SDS011;12324;48.146;11.502;2024-03-17T05:44:14;15.43;;;7.00;;
24173;SDS011;12324;48.146;11.502;2024-03-17T05:46:41;13.10;;;6.00;;
24173;SDS011;12324;48.146;11.502;2024-03-17T05:49:07;14.40;;;6.38;;
24173;SDS011;12324;48.146;11.502;2024-03-17T05:51:34;12.75;;;6.32;;
24173;SDS011;12324;48.146;11.502;2024-03-17T05:54:00;14.82;;;6.45;;
24173;SDS011;12324;48.146;11.502;2024-03-17T05:56:26;15.45;;;6.93;;
24173;SDS011;12324;48.146;11.502;2024-03-17T05:58:53;15.63;;;7.25;;
24173;SDS011;12324;48.146;11.502;2024-03-17T06:01:19;15.85;;;8.00;;
24173;SDS011;12324;48.146;11.502;2024-03-17T06:03:47;16.27;;;7.40;;
24173;SDS011;12324;48.146;11.502;2024-03-17T06:06:14;16.65;;;7.18;;
24173;SDS011;12324;48.146;11.502;2024-03-17T06:08:40;17.95;;;7.60;;
24173;SDS011;12324;48.146;11.502;2024-03-17T06:11:06;15.52;;;8.15;;
24173;SDS011;12324;48.146;11.502;2024-03-17T06:13:33;15.10;;;7.90;;
24173;SDS011;12324;48.146;11.502;2024-03-17T06:16:01;17.05;;;8.73;;
24173;SDS011;12324;48.146;11.502;2024-03-17T06:18:28;17.45;;;8.85;;
24173;SDS011;12324;48.146;11.502;2024-03-17T06:20:54;15.45;;;8.02;;
24173;SDS011;12324;48.146;11.502;2024-03-17T06:23:23;16.75;;;8.45;;
24173;SDS011;12324;48.146;11.502;2024-03-17T06:25:52;17.98;;;8.75;;
24173;SDS011;12324;48.146;11.502;2024-03-17T06:28:20;16.70;;;8.18;;
24173;SDS011;12324;48.146;11.502;2024-03-17T06:30:57;16.17;;;8.07;;
24173;SDS011;12324;48.146;11.502;2024-03-17T06:33:29;19.55;;;8.48;;
24173;SDS011;12324;48.146;11.502;2024-03-17T06:35:57;16.95;;;7.75;;
24173;SDS011;12324;48.146;11.502;2024-03-17T06:38:23;14.38;;;7.82;;
24173;SDS011;12324;48.146;11.502;2024-03-17T06:40:53;14.38;;;7.18;;
24173;SDS011;12324;48.146;11.502;2024-03-17T06:43:19;14.07;;;7.00;;
24173;SDS011;12324;48.146;11.502;2024-03-17T06:45:58;15.35;;;7.72;;
24173;SDS011;12324;48.146;11.502;2024-03-17T06:48:25;15.77;;;6.80;;
24173;SDS011;12324;48.146;11.502;2024-03-17T06:50:52;16.52;;;7.25;;
24173;SDS011;12324;48.146;11.502;2024-03-17T06:53:23;13.73;;;7.00;;
24173;SDS011;12324;48.146;11.502;2024-03-17T06:55:55;13.82;;;6.55;;
24173;SDS011;12324;48.146;11.502;2024-03-17T06:58:25;12.68;;;6.05;;
24173;SDS011;12324;48.146;11.502;2024-03-17T07:00:59;13.00;;;6.35;;
24173;SDS011;12324;48.146;11.502;2024-03-17T07:03:26;14.35;;;6.38;;
24173;SDS011;12324;48.146;11.502;2024-03-17T07:05:54;11.30;;;5.35;;
24173;SDS011;12324;48.146;11.502;2024-03-17T07:08:21;12.15;;;5.45;;
24173;SDS011;12324;48.146;11.502;2024-03-17T07:13:24;11.60;;;5.75;;
24173;SDS011;12324;48.146;11.502;2024-03-17T07:15:51;10.57;;;5.28;;
24173;SDS011;12324;48.146;11.502;2024-03-17T07:18:17;10.25;;;5.13;;
24173;SDS011;12324;48.146;11.502;2024-03-17T07:20:43;11.73;;;5.10;;
24173;SDS011;12324;48.146;11.502;2024-03-17T07:23:13;12.02;;;5.53;;
24173;SDS011;12324;48.146;11.502;2024-03-17T07:25:40;11.32;;;5.68;;
24173;SDS011;12324;48.146;11.502;2024-03-17T07:28:08;11.60;;;4.93;;
24173;SDS011;12324;48.146;11.502;2024-03-17T07:30:34;11.07;;;5.22;;
24173;SDS011;12324;48.146;11.502;2024-03-17T07:33:01;10.32;;;4.90;;
24173;SDS011;12324;48.146;11.502;2024-03-17T07:35:27;9.73;;;4.55;;
24173;SDS011;12324;48.146;11.502;2024-03-17T07:37:53;13.63;;;4.70;;
24173;SDS011;12324;48.146;11.502;2024-03-17T07:40:20;10.45;;;4.55;;
24173;SDS011;12324;48.146;11.502;2024-03-17T07:42:46;8.73;;;3.97;;
24173;SDS011;12324;48.146;11.502;2024-03-17T07:45:12;10.77;;;4.50;;
24173;SDS011;12324;48.146;11.502;2024-03-17T07:47:39;8.20;;;4.15;;
24173;SDS011;12324;48.146;11.502;2024-03-17T07:50:05;7.90;;;4.28;;
24173;SDS011;12324;48.146;11.502;2024-03-17T07:52:32;9.90;;;4.28;;
24173;SDS011;12324;48.146;11.502;2024-03-17T07:54:58;9.48;;;4.80;;
24173;SDS011;12324;48.146;11.502;2024-03-17T07:57:24;7.63;;;4.43;;
24173;SDS011;12324;48.146;11.502;2024-03-17T07:59:50;9.27;;;5.15;;
24173;SDS011;12324;48.146;11.502;2024-03-17T08:02:17;12.50;;;4.75;;
24173;SDS011;12324;48.146;11.502;2024-03-17T08:04:43;9.85;;;4.68;;
24173;SDS011;12324;48.146;11.502;2024-03-17T08:07:10;9.63;;;4.30;;
24173;SDS011;12324;48.146;11.502;2024-03-17T08:09:37;10.55;;;4.40;;
24173;SDS011;12324;48.146;11.502;2024-03-17T08:12:03;10.13;;;4.60;;
24173;SDS011;12324;48.146;11.502;2024-03-17T08:14:30;8.63;;;4.05;;
24173;SDS011;12324;48.146;11.502;2024-03-17T08:16:56;9.57;;;4.20;;
24173;SDS011;12324;48.146;11.502;2024-03-17T08:19:22;9.10;;;3.95;;
24173;SDS011;12324;48.146;11.502;2024-03-17T08:21:48;8.82;;;4.03;;
24173;SDS011;12324;48.146;11.502;2024-03-17T08:24:15;9.10;;;3.83;;
24173;SDS011;12324;48.146;11.502;2024-03-17T08:26:41;8.25;;;4.03;;
24173;SDS011;12324;48.146;11.502;2024-03-17T08:29:10;8.50;;;3.70;;
24173;SDS011;12324;48.146;11.502;2024-03-17T08:31:37;7.38;;;3.38;;
24173;SDS011;12324;48.146;11.502;2024-03-17T08:34:03;9.23;;;3.45;;
24173;SDS011;12324;48.146;11.502;2024-03-17T08:36:29;8.07;;;3.95;;
24173;SDS011;12324;48.146;11.502;2024-03-17T08:38:56;8.05;;;3.67;;
24173;SDS011;12324;48.146;11.502;2024-03-17T08:41:24;7.13;;;3.47;;
24173;SDS011;12324;48.146;11.502;2024-03-17T08:43:50;6.65;;;3.28;;
24173;SDS011;12324;48.146;11.502;2024-03-17T08:46:16;7.25;;;3.67;;
24173;SDS011;12324;48.146;11.502;2024-03-17T08:48:43;6.82;;;3.15;;
24173;SDS011;12324;48.146;11.502;2024-03-17T08:51:10;6.22;;;3.30;;
24173;SDS011;12324;48.146;11.502;2024-03-17T08:53:36;7.70;;;3.47;;
24173;SDS011;12324;48.146;11.502;2024-03-17T08:56:04;7.65;;;3.38;;
24173;SDS011;12324;48.146;11.502;2024-03-17T08:58:34;6.70;;;3.30;;
24173;SDS011;12324;48.146;11.502;2024-03-17T09:01:04;8.82;;;3.70;;
24173;SDS011;12324;48.146;11.502;2024-03-17T09:03:32;6.60;;;3.00;;
24173;SDS011;12324;48.146;11.502;2024-03-17T09:05:58;7.35;;;3.15;;
24173;SDS011;12324;48.146;11.502;2024-03-17T09:08:25;6.13;;;3.00;;
24173;SDS011;12324;48.146;11.502;2024-03-17T09:10:53;4.70;;;2.70;;
24173;SDS011;12324;48.146;11.502;2024-03-17T09:13:20;5.47;;;2.92;;
24173;SDS011;12324;48.146;11.502;2024-03-17T09:15:58;5.85;;;3.25;;
24173;SDS011;12324;48.146;11.502;2024-03-17T09:18:25;6.80;;;2.90;;
24173;SDS011;12324;48.146;11.502;2024-03-17T09:20:58;5.85;;;3.15;;
24173;SDS011;12324;48.146;11.502;2024-03-17T09:23:25;4.75;;;2.53;;
24173;SDS011;12324;48.146;11.502;2024-03-17T09:25:55;7.05;;;2.85;;
24173;SDS011;12324;48.146;11.502;2024-03-17T09:28:22;5.70;;;2.70;;
24173;SDS011;12324;48.146;11.502;2024-03-17T09:30:50;4.95;;;2.53;;
24173;SDS011;12324;48.146;11.502;2024-03-17T09:33:18;5.18;;;2.35;;
24173;SDS011;12324;48.146;11.502;2024-03-17T09:35:52;5.28;;;2.55;;
24173;SDS011;12324;48.146;11.502;2024-03-17T09:38:19;4.18;;;1.90;;
24173;SDS011;12324;48.146;11.502;2024-03-17T09:40:48;5.53;;;2.25;;
24173;SDS011;12324;48.146;11.502;2024-03-17T09:43:18;4.10;;;2.40;;
24173;SDS011;12324;48.146;11.502;2024-03-17T09:45:48;4.65;;;2.65;;
24173;SDS011;12324;48.146;11.502;2024-03-17T09:48:16;5.45;;;2.60;;
24173;SDS011;12324;48.146;11.502;2024-03-17T09:50:52;6.40;;;2.60;;
24173;SDS011;12324;48.146;11.502;2024-03-17T09:53:29;6.55;;;2.65;;
24173;SDS011;12324;48.146;11.502;2024-03-17T09:56:00;5.60;;;2.70;;
24173;SDS011;12324;48.146;11.502;2024-03-17T09:58:31;6.57;;;2.47;;
24173;SDS011;12324;48.146;11.502;2024-03-17T10:00:57;6.70;;;2.40;;
24173;SDS011;12324;48.146;11.502;2024-03-17T10:03:39;5.45;;;2.47;;
24173;SDS011;12324;48.146;11.502;2024-03-17T10:06:20;6.35;;;2.22;;
24173;SDS011;12324;48.146;11.502;2024-03-17T10:08:51;6.68;;;3.00;;
24173;SDS011;12324;48.146;11.502;2024-03-17T10:11:18;4.53;;;2.30;;
24173;SDS011;12324;48.146;11.502;2024-03-17T10:13:45;5.88;;;2.08;;
24173;SDS011;12324;48.146;11.502;2024-03-17T10:16:25;9.27;;;4.22;;
24173;SDS011;12324;48.146;11.502;2024-03-17T10:19:10;3.45;;;1.92;;
24173;SDS011;12324;48.146;11.502;2024-03-17T10:21:37;4.20;;;2.03;;
24173;SDS011;12324;48.146;11.502;2024-03-17T10:24:05;6.85;;;1.75;;
24173;SDS011;12324;48.146;11.502;2024-03-17T10:26:44;6.97;;;2.28;;
24173;SDS011;12324;48.146;11.502;2024-03-17T10:29:18;6.60;;;1.73;;
24173;SDS011;12324;48.146;11.502;2024-03-17T10:31:45;5.72;;;1.63;;
24173;SDS011;12324;48.146;11.502;2024-03-17T10:34:14;7.20;;;1.40;;
24173;SDS011;12324;48.146;11.502;2024-03-17T10:36:47;4.38;;;1.80;;
24173;SDS011;12324;48.146;11.502;2024-03-17T10:39:23;4.82;;;1.80;;
24173;SDS011;12324;48.146;11.502;2024-03-17T10:41:57;4.30;;;1.42;;
24173;SDS011;12324;48.146;11.502;2024-03-17T10:44:28;4.90;;;2.15;;
24173;SDS011;12324;48.146;11.502;2024-03-17T10:46:55;2.65;;;1.73;;
24173;SDS011;12324;48.146;11.502;2024-03-17T10:49:29;6.22;;;1.70;;
24173;SDS011;12324;48.146;11.502;2024-03-17T10:51:58;3.58;;;1.80;;
24173;SDS011;12324;48.146;11.502;2024-03-17T10:54:38;5.07;;;2.13;;
24173;SDS011;12324;48.146;11.502;2024-03-17T10:59:41;5.80;;;1.70;;
24173;SDS011;12324;48.146;11.502;2024-03-17T11:02:16;2.40;;;1.45;;
24173;SDS011;12324;48.146;11.502;2024-03-17T11:04:44;3.53;;;1.50;;
24173;SDS011;12324;48.146;11.502;2024-03-17T11:07:15;4.57;;;1.92;;
24173;SDS011;12324;48.146;11.502;2024-03-17T11:09:42;6.18;;;1.70;;
24173;SDS011;12324;48.146;11.502;2024-03-17T11:17:27;5.80;;;1.40;;
24173;SDS011;12324;48.146;11.502;2024-03-17T11:20:13;5.85;;;1.88;;
24173;SDS011;12324;48.146;11.502;2024-03-17T11:23:07;4.15;;;1.40;;
24173;SDS011;12324;48.146;11.502;2024-03-17T11:26:03;3.17;;;1.30;;
24173;SDS011;12324;48.146;11.502;2024-03-17T11:28:55;6.90;;;1.25;;
24173;SDS011;12324;48.146;11.502;2024-03-17T11:34:01;4.90;;;1.63;;
24173;SDS011;12324;48.146;11.502;2024-03-17T11:38:58;5.53;;;1.77;;
24173;SDS011;12324;48.146;11.502;2024-03-17T11:51:53;4.85;;;1.52;;
24173;SDS011;12324;48.146;11.502;2024-03-17T11:54:27;5.60;;;1.65;;
24173;SDS011;12324;48.146;11.502;2024-03-17T11:56:55;5.80;;;1.73;;
24173;SDS011;12324;48.146;11.502;2024-03-17T11:59:25;7.07;;;1.55;;
24173;SDS011;12324;48.146;11.502;2024-03-17T12:01:51;9.80;;;2.25;;
24173;SDS011;12324;48.146;11.502;2024-03-17T12:04:18;7.60;;;1.20;;
24173;SDS011;12324;48.146;11.502;2024-03-17T12:09:28;4.57;;;1.83;;
24173;SDS011;12324;48.146;11.502;2024-03-17T12:14:27;6.43;;;1.63;;
24173;SDS011;12324;48.146;11.502;2024-03-17T12:16:54;7.13;;;1.73;;
24173;SDS011;12324;48.146;11.502;2024-03-17T12:19:32;5.25;;;1.38;;
24173;SDS011;12324;48.146;11.502;2024-03-17T12:21:59;5.57;;;2.13;;
24173;SDS011;12324;48.146;11.502;2024-03-17T12:24:27;9.57;;;2.40;;
24173;SDS011;12324;48.146;11.502;2024-03-17T12:26:55;7.78;;;2.40;;
24173;SDS011;12324;48.146;11.502;2024-03-17T12:32:04;6.38;;;2.00;;
24173;SDS011;12324;48.146;11.502;2024-03-17T12:34:36;3.80;;;1.58;;
24173;SDS011;12324;48.146;11.502;2024-03-17T12:37:04;5.32;;;1.67;;
24173;SDS011;12324;48.146;11.502;2024-03-17T12:39:31;4.78;;;1.83;;
24173;SDS011;12324;48.146;11.502;2024-03-17T12:42:07;2.88;;;1.20;;
24173;SDS011;12324;48.146;11.502;2024-03-17T12:44:47;4.40;;;1.60;;
24173;SDS011;12324;48.146;11.502;2024-03-17T12:47:23;5.43;;;1.65;;
24173;SDS011;12324;48.146;11.502;2024-03-17T12:49:51;4.93;;;1.50;;
24173;SDS011;12324;48.146;11.502;2024-03-17T12:52:21;4.32;;;1.60;;
24173;SDS011;12324;48.146;11.502;2024-03-17T12:54:57;2.65;;;1.52;;
24173;SDS011;12324;48.146;11.502;2024-03-17T12:57:44;4.13;;;1.48;;
24173;SDS011;12324;48.146;11.502;2024-03-17T13:00:29;4.75;;;1.85;;
24173;SDS011;12324;48.146;11.502;2024-03-17T13:03:05;4.63;;;1.58;;
24173;SDS011;12324;48.146;11.502;2024-03-17T13:05:32;9.48;;;1.98;;
24173;SDS011;12324;48.146;11.502;2024-03-17T13:07:59;3.75;;;1.38;;
24173;SDS011;12324;48.146;11.502;2024-03-17T13:10:25;3.75;;;1.73;;
24173;SDS011;12324;48.146;11.502;2024-03-17T13:13:02;2.83;;;1.55;;
24173;SDS011;12324;48.146;11.502;2024-03-17T13:15:30;6.15;;;1.20;;
24173;SDS011;12324;48.146;11.502;2024-03-17T13:18:00;9.32;;;2.08;;
24173;SDS011;12324;48.146;11.502;2024-03-17T13:20:26;7.20;;;2.08;;
24173;SDS011;12324;48.146;11.502;2024-03-17T13:22:52;3.03;;;1.38;;
24173;SDS011;12324;48.146;11.502;2024-03-17T13:25:21;4.70;;;1.77;;
24173;SDS011;12324;48.146;11.502;2024-03-17T13:27:50;4.97;;;1.73;;
24173;SDS011;12324;48.146;11.502;2024-03-17T13:30:17;4.70;;;1.55;;
24173;SDS011;12324;48.146;11.502;2024-03-17T13:32:44;8.68;;;2.28;;
24173;SDS011;12324;48.146;11.502;2024-03-17T13:37:46;4.55;;;1.50;;
24173;SDS011;12324;48.146;11.502;2024-03-17T13:40:13;6.10;;;1.80;;
24173;SDS011;12324;48.146;11.502;2024-03-17T13:42:42;8.90;;;2.05;;
24173;SDS011;12324;48.146;11.502;2024-03-17T13:45:10;7.18;;;2.50;;
24173;SDS011;12324;48.146;11.502;2024-03-17T13:47:37;8.50;;;1.45;;
24173;SDS011;12324;48.146;11.502;2024-03-17T13:50:07;4.47;;;1.30;;
24173;SDS011;12324;48.146;11.502;2024-03-17T13:52:41;6.68;;;1.60;;
24173;SDS011;12324;48.146;11.502;2024-03-17T13:55:12;6.72;;;1.85;;
24173;SDS011;12324;48.146;11.502;2024-03-17T13:57:46;10.40;;;2.28;;
24173;SDS011;12324;48.146;11.502;2024-03-17T14:00:14;6.50;;;2.30;;
24173;SDS011;12324;48.146;11.502;2024-03-17T14:02:48;4.78;;;1.50;;
24173;SDS011;12324;48.146;11.502;2024-03-17T14:05:16;5.82;;;1.98;;
24173;SDS011;12324;48.146;11.502;2024-03-17T14:07:43;8.02;;;3.63;;
24173;SDS011;12324;48.146;11.502;2024-03-17T14:10:13;9.35;;;2.35;;
24173;SDS011;12324;48.146;11.502;2024-03-17T14:12:41;5.45;;;2.15;;
24173;SDS011;12324;48.146;11.502;2024-03-17T14:15:08;8.45;;;1.83;;
24173;SDS011;12324;48.146;11.502;2024-03-17T14:17:38;7.32;;;1.90;;
24173;SDS011;12324;48.146;11.502;2024-03-17T14:20:04;6.28;;;1.60;;
24173;SDS011;12324;48.146;11.502;2024-03-17T14:22:35;8.77;;;1.98;;
24173;SDS011;12324;48.146;11.502;2024-03-17T14:25:03;10.82;;;1.92;;
24173;SDS011;12324;48.146;11.502;2024-03-17T14:27:30;2.85;;;1.40;;
24173;SDS011;12324;48.146;11.502;2024-03-17T14:29:57;6.15;;;1.52;;
24173;SDS011;12324;48.146;11.502;2024-03-17T14:32:23;6.97;;;2.17;;
24173;SDS011;12324;48.146;11.502;2024-03-17T14:34:49;6.80;;;1.80;;
24173;SDS011;12324;48.146;11.502;2024-03-17T14:37:16;6.30;;;1.55;;
24173;SDS011;12324;48.146;11.502;2024-03-17T14:39:42;5.93;;;1.75;;
24173;SDS011;12324;48.146;11.502;2024-03-17T14:42:09;5.20;;;1.48;;
24173;SDS011;12324;48.146;11.502;2024-03-17T14:44:36;6.05;;;1.75;;
24173;SDS011;12324;48.146;11.502;2024-03-17T14:47:02;4.18;;;1.55;;
24173;SDS011;12324;48.146;11.502;2024-03-17T14:49:32;8.05;;;2.70;;
24173;SDS011;12324;48.146;11.502;2024-03-17T14:51:58;4.15;;;1.65;;
24173;SDS011;12324;48.146;11.502;2024-03-17T14:54:25;9.63;;;2.13;;
24173;SDS011;12324;48.146;11.502;2024-03-17T14:56:52;6.15;;;2.17;;
24173;SDS011;12324;48.146;11.502;2024-03-17T14:59:22;11.85;;;2.22;;
24173;SDS011;12324;48.146;11.502;2024-03-17T15:01:48;2.80;;;1.30;;
24173;SDS011;12324;48.146;11.502;2024-03-17T15:04:14;8.43;;;2.20;;
24173;SDS011;12324;48.146;11.502;2024-03-17T15:06:41;6.88;;;1.80;;
24173;SDS011;12324;48.146;11.502;2024-03-17T15:09:10;2.75;;;1.23;;
24173;SDS011;12324;48.146;11.502;2024-03-17T15:11:44;5.72;;;1.52;;